LFBDLFBY

Guest
Details From LFBD - Bordeaux Merignac
To LFBY - Dax Seyresse
Flight Number -
Tags generated
Created
Modified
Stats Distance 70 nm / 130 km
Max Altitude 9,300 ft / 2,835 m
Waypoints 3
Social Downloads 1
Likes 0
Share VATSIM

Download

Looking for another format? Having issues loading an existing format? Contact us
Advertisement - Login to hide

Notes

Basic altitude profile: - Ascent Rate: 2500ft/min - Ascent Speed: 250kts - Cruise Altitude: 35000ft - Cruise Speed: 420kts - Descent Rate: 1500ft/min - Descent Speed: 250kts Options: - Use NATs: yes - Use PACOTS: yes - Use low airways: yes - Use high airways: yes

Route

LFBD LULUT LFBY

ID Type Via Altitude Latitude Longitude Leg Dist Tot Dist Heading (true) Name
O LFBD APT - 0 ft / 0 m 44.82876˚ -0.71476˚ - 0 nm - Bordeaux Merignac
LULUT FIX - 9,300 ft / 2,835 m 44.39861˚ -0.83972˚ 26 nm 26 nm 192° / 192° -
O LFBY APT - 0 ft / 0 m 43.69000˚ -1.06700˚ 43 nm 70 nm 193° / 193° Dax Seyresse

Altitude Profile

Advertisement - Login to hide

LFBD

Details ICAO LFBD (BOD)
Name Bordeaux Merignac
Region France
Timezone Europe/Paris (UTC+1.0)
Stats Elevation 166 ft / 51 m (AMSL)
Location 44.828762° -0.714755°
Runways 2
Magnetic Variation 0.065° W

METAR

LFBD 180700Z AUTO 26009KT 9999 FEW037 BKN047 BKN088 09/07 Q1029 TEMPO 4500 -DZ BKN012

Decode

TAF

TAF TAF LFBD 180500Z 1806/1912 25005KT 9999 BKN030 TEMPO 1806/1809 4500 -DZ BKN012 TEMPO 1809/1815 2500 RADZ OVC006 PROB30 TEMPO 1810/1815 OVC003 BECMG 1815/1817 34010KT NSW BKN015 BECMG 1817/1819 NSC PROB40 TEMPO 1900/1909 2000 BCFG BKN005 TX12/1814Z TN01/1905Z

Decode

Departure Runways

ID Width Length Bearing (true) Bearing (mag) Surface Threshold Offset Overrun Length
05 148 ft / 45 m 10,164 ft / 3,098 m 45.48° 45.55° Asphalt 26 ft / 8 m 1,145 ft / 349 m
11 148 ft / 45 m 7,931 ft / 2,417 m 106.45° 106.52° Asphalt 26 ft / 8 m 1,198 ft / 365 m
23 148 ft / 45 m 10,164 ft / 3,098 m 225.50° 225.57° Asphalt 39 ft / 12 m 1,266 ft / 386 m
29 148 ft / 45 m 7,931 ft / 2,417 m 286.47° 286.54° Asphalt 33 ft / 10 m 1,201 ft / 366 m

LFBY

Details ICAO LFBY
Name Dax Seyresse
Region France
Timezone Europe/Paris (UTC+1.0)
Stats Elevation 108 ft / 33 m (AMSL)
Location 43.689995° -1.066997°
Runways 1
Magnetic Variation 0.104° W

METAR

LFBY 180700Z 19006KT 7000 SCT030 SCT046 07/07 Q1032

Decode

TAF

Not found

Destination Runways

ID Width Length Bearing (true) Bearing (mag) Surface Threshold Offset Overrun Length
08 98 ft / 30 m 2,462 ft / 751 m 74.00° 74.10° Dirt 0 ft / 0 m 0 ft / 0 m
26 98 ft / 30 m 2,462 ft / 751 m 254.00° 254.10° Dirt 0 ft / 0 m 0 ft / 0 m